sensor_id;sensor_type;location;lat;lon;timestamp;P1;durP1;ratioP1;P2;durP2;ratioP2
78901;SDS011;70441;44.758;37.686;2023-12-28T00:00:20;5.93;;;0.90;;
78901;SDS011;70441;44.758;37.686;2023-12-28T00:01:22;2.88;;;0.70;;
78901;SDS011;70441;44.758;37.686;2023-12-28T00:02:24;2.08;;;0.75;;
78901;SDS011;70441;44.758;37.686;2023-12-28T00:03:26;3.55;;;0.93;;
78901;SDS011;70441;44.758;37.686;2023-12-28T00:04:27;2.70;;;0.80;;
78901;SDS011;70441;44.758;37.686;2023-12-28T00:05:29;4.18;;;1.00;;
78901;SDS011;70441;44.758;37.686;2023-12-28T00:06:31;4.18;;;1.00;;
78901;SDS011;70441;44.758;37.686;2023-12-28T00:07:33;2.72;;;0.80;;
78901;SDS011;70441;44.758;37.686;2023-12-28T00:08:34;3.72;;;1.23;;
78901;SDS011;70441;44.758;37.686;2023-12-28T00:09:36;2.40;;;0.70;;
78901;SDS011;70441;44.758;37.686;2023-12-28T00:10:38;1.92;;;0.70;;
78901;SDS011;70441;44.758;37.686;2023-12-28T00:11:39;3.13;;;1.02;;
78901;SDS011;70441;44.758;37.686;2023-12-28T00:12:41;4.60;;;1.10;;
78901;SDS011;70441;44.758;37.686;2023-12-28T00:13:43;2.63;;;0.88;;
78901;SDS011;70441;44.758;37.686;2023-12-28T00:14:45;3.53;;;0.90;;
78901;SDS011;70441;44.758;37.686;2023-12-28T00:15:46;4.63;;;1.20;;
78901;SDS011;70441;44.758;37.686;2023-12-28T00:16:48;4.03;;;1.00;;
78901;SDS011;70441;44.758;37.686;2023-12-28T00:17:50;4.20;;;1.00;;
78901;SDS011;70441;44.758;37.686;2023-12-28T00:18:51;2.25;;;0.80;;
78901;SDS011;70441;44.758;37.686;2023-12-28T00:19:53;3.95;;;0.95;;
78901;SDS011;70441;44.758;37.686;2023-12-28T00:20:55;2.85;;;0.82;;
78901;SDS011;70441;44.758;37.686;2023-12-28T00:21:56;1.20;;;0.60;;
78901;SDS011;70441;44.758;37.686;2023-12-28T00:22:58;4.93;;;1.30;;
78901;SDS011;70441;44.758;37.686;2023-12-28T00:24:00;3.47;;;0.90;;
78901;SDS011;70441;44.758;37.686;2023-12-28T00:25:01;2.70;;;0.80;;
78901;SDS011;70441;44.758;37.686;2023-12-28T00:26:03;2.75;;;0.70;;
78901;SDS011;70441;44.758;37.686;2023-12-28T00:27:04;5.30;;;1.00;;
78901;SDS011;70441;44.758;37.686;2023-12-28T00:28:06;4.85;;;1.20;;
78901;SDS011;70441;44.758;37.686;2023-12-28T00:29:07;3.28;;;0.90;;
78901;SDS011;70441;44.758;37.686;2023-12-28T00:30:09;1.92;;;0.80;;
78901;SDS011;70441;44.758;37.686;2023-12-28T00:31:10;3.88;;;0.80;;
78901;SDS011;70441;44.758;37.686;2023-12-28T00:32:12;2.85;;;0.70;;
78901;SDS011;70441;44.758;37.686;2023-12-28T00:33:13;2.20;;;0.60;;
78901;SDS011;70441;44.758;37.686;2023-12-28T00:34:16;1.60;;;0.60;;
78901;SDS011;70441;44.758;37.686;2023-12-28T00:35:17;2.38;;;0.63;;
78901;SDS011;70441;44.758;37.686;2023-12-28T00:36:18;1.70;;;0.60;;
78901;SDS011;70441;44.758;37.686;2023-12-28T00:37:21;2.83;;;0.90;;
78901;SDS011;70441;44.758;37.686;2023-12-28T00:39:26;1.60;;;0.63;;
78901;SDS011;70441;44.758;37.686;2023-12-28T00:40:27;2.45;;;0.93;;
78901;SDS011;70441;44.758;37.686;2023-12-28T00:41:30;3.13;;;0.75;;
78901;SDS011;70441;44.758;37.686;2023-12-28T00:42:31;2.42;;;0.60;;
78901;SDS011;70441;44.758;37.686;2023-12-28T00:43:33;7.28;;;1.00;;
78901;SDS011;70441;44.758;37.686;2023-12-28T00:44:35;2.50;;;0.88;;
78901;SDS011;70441;44.758;37.686;2023-12-28T00:45:36;2.00;;;0.70;;
78901;SDS011;70441;44.758;37.686;2023-12-28T00:46:37;1.30;;;0.60;;
78901;SDS011;70441;44.758;37.686;2023-12-28T00:47:40;3.13;;;1.00;;
78901;SDS011;70441;44.758;37.686;2023-12-28T00:48:43;3.13;;;0.70;;
78901;SDS011;70441;44.758;37.686;2023-12-28T00:49:45;2.55;;;0.57;;
78901;SDS011;70441;44.758;37.686;2023-12-28T00:50:46;4.93;;;0.93;;
78901;SDS011;70441;44.758;37.686;2023-12-28T00:51:48;4.82;;;1.00;;
78901;SDS011;70441;44.758;37.686;2023-12-28T00:52:49;3.78;;;0.93;;
78901;SDS011;70441;44.758;37.686;2023-12-28T00:53:51;1.58;;;0.52;;
78901;SDS011;70441;44.758;37.686;2023-12-28T00:54:52;1.38;;;0.47;;
78901;SDS011;70441;44.758;37.686;2023-12-28T00:55:53;2.40;;;0.80;;
78901;SDS011;70441;44.758;37.686;2023-12-28T00:56:57;3.20;;;0.52;;
78901;SDS011;70441;44.758;37.686;2023-12-28T00:57:58;3.55;;;0.90;;
78901;SDS011;70441;44.758;37.686;2023-12-28T00:59:00;3.17;;;0.90;;
78901;SDS011;70441;44.758;37.686;2023-12-28T01:00:03;3.35;;;0.80;;
78901;SDS011;70441;44.758;37.686;2023-12-28T01:01:06;2.17;;;0.70;;
78901;SDS011;70441;44.758;37.686;2023-12-28T01:02:07;4.32;;;0.80;;
78901;SDS011;70441;44.758;37.686;2023-12-28T01:03:09;3.05;;;0.95;;
78901;SDS011;70441;44.758;37.686;2023-12-28T01:04:10;2.13;;;0.68;;
78901;SDS011;70441;44.758;37.686;2023-12-28T01:05:12;1.98;;;0.57;;
78901;SDS011;70441;44.758;37.686;2023-12-28T01:06:16;2.13;;;0.65;;
78901;SDS011;70441;44.758;37.686;2023-12-28T01:07:17;2.75;;;0.60;;
78901;SDS011;70441;44.758;37.686;2023-12-28T01:08:19;5.80;;;1.00;;
78901;SDS011;70441;44.758;37.686;2023-12-28T01:09:20;2.38;;;0.80;;
78901;SDS011;70441;44.758;37.686;2023-12-28T01:10:21;6.18;;;1.10;;
78901;SDS011;70441;44.758;37.686;2023-12-28T01:11:23;4.45;;;1.02;;
78901;SDS011;70441;44.758;37.686;2023-12-28T01:12:25;3.17;;;0.90;;
78901;SDS011;70441;44.758;37.686;2023-12-28T01:13:27;4.20;;;0.88;;
78901;SDS011;70441;44.758;37.686;2023-12-28T01:14:29;3.90;;;1.10;;
78901;SDS011;70441;44.758;37.686;2023-12-28T01:15:30;2.25;;;0.80;;
78901;SDS011;70441;44.758;37.686;2023-12-28T01:16:32;4.30;;;0.77;;
78901;SDS011;70441;44.758;37.686;2023-12-28T01:17:34;4.00;;;0.90;;
78901;SDS011;70441;44.758;37.686;2023-12-28T01:18:36;2.20;;;0.60;;
78901;SDS011;70441;44.758;37.686;2023-12-28T01:19:38;0.90;;;0.30;;
78901;SDS011;70441;44.758;37.686;2023-12-28T01:20:39;2.55;;;0.80;;
78901;SDS011;70441;44.758;37.686;2023-12-28T01:21:40;2.08;;;0.73;;
78901;SDS011;70441;44.758;37.686;2023-12-28T01:22:42;1.98;;;0.70;;
78901;SDS011;70441;44.758;37.686;2023-12-28T01:23:43;3.72;;;0.80;;
78901;SDS011;70441;44.758;37.686;2023-12-28T01:24:46;2.08;;;0.60;;
78901;SDS011;70441;44.758;37.686;2023-12-28T01:25:50;3.47;;;0.93;;
78901;SDS011;70441;44.758;37.686;2023-12-28T01:26:51;2.15;;;0.60;;
78901;SDS011;70441;44.758;37.686;2023-12-28T01:27:53;1.88;;;0.63;;
78901;SDS011;70441;44.758;37.686;2023-12-28T01:28:54;3.22;;;0.70;;
78901;SDS011;70441;44.758;37.686;2023-12-28T01:29:57;3.60;;;0.80;;
78901;SDS011;70441;44.758;37.686;2023-12-28T01:30:59;3.58;;;0.85;;
78901;SDS011;70441;44.758;37.686;2023-12-28T01:32:02;4.93;;;0.60;;
78901;SDS011;70441;44.758;37.686;2023-12-28T01:33:04;1.92;;;0.60;;
78901;SDS011;70441;44.758;37.686;2023-12-28T01:34:06;3.83;;;0.80;;
78901;SDS011;70441;44.758;37.686;2023-12-28T01:35:10;2.42;;;0.70;;
78901;SDS011;70441;44.758;37.686;2023-12-28T01:36:17;3.85;;;0.80;;
78901;SDS011;70441;44.758;37.686;2023-12-28T01:37:20;2.78;;;0.77;;
78901;SDS011;70441;44.758;37.686;2023-12-28T01:38:22;2.13;;;0.57;;
78901;SDS011;70441;44.758;37.686;2023-12-28T01:39:23;5.60;;;0.90;;
78901;SDS011;70441;44.758;37.686;2023-12-28T01:40:25;2.70;;;0.80;;
78901;SDS011;70441;44.758;37.686;2023-12-28T01:41:27;3.50;;;0.90;;
78901;SDS011;70441;44.758;37.686;2023-12-28T01:42:29;2.35;;;0.82;;
78901;SDS011;70441;44.758;37.686;2023-12-28T01:43:32;3.72;;;0.70;;
78901;SDS011;70441;44.758;37.686;2023-12-28T01:44:33;4.15;;;0.82;;
78901;SDS011;70441;44.758;37.686;2023-12-28T01:45:35;7.15;;;0.95;;
78901;SDS011;70441;44.758;37.686;2023-12-28T01:46:36;2.97;;;0.90;;
78901;SDS011;70441;44.758;37.686;2023-12-28T01:47:37;3.67;;;0.70;;
78901;SDS011;70441;44.758;37.686;2023-12-28T01:48:39;2.70;;;0.65;;
78901;SDS011;70441;44.758;37.686;2023-12-28T01:49:42;2.53;;;0.90;;
78901;SDS011;70441;44.758;37.686;2023-12-28T01:50:44;1.98;;;0.55;;
78901;SDS011;70441;44.758;37.686;2023-12-28T01:51:46;3.38;;;1.00;;
78901;SDS011;70441;44.758;37.686;2023-12-28T01:52:49;2.95;;;0.90;;
78901;SDS011;70441;44.758;37.686;2023-12-28T01:53:51;2.00;;;0.55;;
78901;SDS011;70441;44.758;37.686;2023-12-28T01:54:54;4.30;;;0.93;;
78901;SDS011;70441;44.758;37.686;2023-12-28T01:55:56;3.33;;;0.90;;
78901;SDS011;70441;44.758;37.686;2023-12-28T01:56:59;4.22;;;0.90;;
78901;SDS011;70441;44.758;37.686;2023-12-28T01:58:02;3.25;;;0.73;;
78901;SDS011;70441;44.758;37.686;2023-12-28T01:59:04;1.13;;;0.60;;
78901;SDS011;70441;44.758;37.686;2023-12-28T02:00:06;2.15;;;0.68;;
78901;SDS011;70441;44.758;37.686;2023-12-28T02:01:16;2.58;;;0.70;;
78901;SDS011;70441;44.758;37.686;2023-12-28T02:02:18;4.15;;;1.10;;
78901;SDS011;70441;44.758;37.686;2023-12-28T02:03:20;5.38;;;1.23;;
78901;SDS011;70441;44.758;37.686;2023-12-28T02:04:21;3.67;;;1.05;;
78901;SDS011;70441;44.758;37.686;2023-12-28T02:05:28;3.58;;;1.20;;
78901;SDS011;70441;44.758;37.686;2023-12-28T02:06:31;7.05;;;2.08;;
78901;SDS011;70441;44.758;37.686;2023-12-28T02:07:32;6.63;;;2.30;;
78901;SDS011;70441;44.758;37.686;2023-12-28T02:09:36;6.80;;;2.75;;
78901;SDS011;70441;44.758;37.686;2023-12-28T02:10:38;2.30;;;1.17;;
78901;SDS011;70441;44.758;37.686;2023-12-28T02:11:40;6.07;;;1.70;;
78901;SDS011;70441;44.758;37.686;2023-12-28T02:12:41;5.03;;;1.13;;
78901;SDS011;70441;44.758;37.686;2023-12-28T02:13:43;6.55;;;1.10;;
78901;SDS011;70441;44.758;37.686;2023-12-28T02:14:45;2.70;;;0.93;;
78901;SDS011;70441;44.758;37.686;2023-12-28T02:15:48;5.45;;;1.25;;
78901;SDS011;70441;44.758;37.686;2023-12-28T02:17:03;3.67;;;1.02;;
78901;SDS011;70441;44.758;37.686;2023-12-28T02:18:15;3.13;;;1.02;;
78901;SDS011;70441;44.758;37.686;2023-12-28T02:19:31;2.80;;;0.80;;
78901;SDS011;70441;44.758;37.686;2023-12-28T02:20:39;1.60;;;0.70;;
78901;SDS011;70441;44.758;37.686;2023-12-28T02:21:43;1.80;;;0.70;;
78901;SDS011;70441;44.758;37.686;2023-12-28T02:22:45;4.90;;;1.35;;
78901;SDS011;70441;44.758;37.686;2023-12-28T02:23:48;4.80;;;0.75;;
78901;SDS011;70441;44.758;37.686;2023-12-28T02:26:04;2.35;;;0.90;;
78901;SDS011;70441;44.758;37.686;2023-12-28T02:27:06;7.07;;;1.10;;
78901;SDS011;70441;44.758;37.686;2023-12-28T02:28:08;5.25;;;1.30;;
78901;SDS011;70441;44.758;37.686;2023-12-28T02:29:10;4.88;;;0.82;;
78901;SDS011;70441;44.758;37.686;2023-12-28T02:30:12;1.80;;;0.60;;
78901;SDS011;70441;44.758;37.686;2023-12-28T02:31:21;1.55;;;0.75;;
78901;SDS011;70441;44.758;37.686;2023-12-28T02:32:36;3.58;;;0.80;;
78901;SDS011;70441;44.758;37.686;2023-12-28T02:33:49;3.75;;;0.88;;
78901;SDS011;70441;44.758;37.686;2023-12-28T02:34:58;3.67;;;1.00;;
78901;SDS011;70441;44.758;37.686;2023-12-28T02:37:08;4.43;;;1.60;;
78901;SDS011;70441;44.758;37.686;2023-12-28T02:38:13;5.72;;;1.65;;
78901;SDS011;70441;44.758;37.686;2023-12-28T02:39:16;6.35;;;1.20;;
78901;SDS011;70441;44.758;37.686;2023-12-28T02:40:18;2.78;;;1.10;;
78901;SDS011;70441;44.758;37.686;2023-12-28T02:41:22;4.97;;;1.23;;
78901;SDS011;70441;44.758;37.686;2023-12-28T02:42:24;9.48;;;3.28;;
78901;SDS011;70441;44.758;37.686;2023-12-28T02:43:29;5.78;;;2.50;;
78901;SDS011;70441;44.758;37.686;2023-12-28T02:44:32;9.57;;;3.10;;
78901;SDS011;70441;44.758;37.686;2023-12-28T02:45:34;10.18;;;4.30;;
78901;SDS011;70441;44.758;37.686;2023-12-28T02:46:36;10.98;;;3.28;;
78901;SDS011;70441;44.758;37.686;2023-12-28T02:47:39;6.70;;;2.90;;
78901;SDS011;70441;44.758;37.686;2023-12-28T02:48:41;8.88;;;2.75;;
78901;SDS011;70441;44.758;37.686;2023-12-28T02:49:43;8.07;;;2.60;;
78901;SDS011;70441;44.758;37.686;2023-12-28T02:50:45;8.25;;;3.28;;
78901;SDS011;70441;44.758;37.686;2023-12-28T02:51:48;9.05;;;4.50;;
78901;SDS011;70441;44.758;37.686;2023-12-28T02:53:00;5.68;;;2.30;;
78901;SDS011;70441;44.758;37.686;2023-12-28T02:54:09;7.50;;;2.75;;
78901;SDS011;70441;44.758;37.686;2023-12-28T02:55:11;6.88;;;3.00;;
78901;SDS011;70441;44.758;37.686;2023-12-28T02:56:13;7.38;;;2.60;;
78901;SDS011;70441;44.758;37.686;2023-12-28T02:57:16;7.07;;;2.08;;
78901;SDS011;70441;44.758;37.686;2023-12-28T02:58:19;7.45;;;2.40;;
78901;SDS011;70441;44.758;37.686;2023-12-28T02:59:21;7.97;;;1.77;;
78901;SDS011;70441;44.758;37.686;2023-12-28T03:00:22;4.50;;;1.67;;
78901;SDS011;70441;44.758;37.686;2023-12-28T03:01:28;4.30;;;1.17;;
78901;SDS011;70441;44.758;37.686;2023-12-28T03:02:55;6.13;;;1.42;;
78901;SDS011;70441;44.758;37.686;2023-12-28T03:03:57;4.28;;;0.93;;
78901;SDS011;70441;44.758;37.686;2023-12-28T03:04:59;4.53;;;1.50;;
78901;SDS011;70441;44.758;37.686;2023-12-28T03:06:00;2.47;;;0.75;;
78901;SDS011;70441;44.758;37.686;2023-12-28T03:07:02;2.50;;;0.70;;
78901;SDS011;70441;44.758;37.686;2023-12-28T03:08:05;5.10;;;1.13;;
78901;SDS011;70441;44.758;37.686;2023-12-28T03:09:08;4.95;;;1.10;;
78901;SDS011;70441;44.758;37.686;2023-12-28T03:10:10;2.30;;;0.80;;
78901;SDS011;70441;44.758;37.686;2023-12-28T03:11:14;4.03;;;1.17;;
78901;SDS011;70441;44.758;37.686;2023-12-28T03:12:16;7.75;;;1.38;;
78901;SDS011;70441;44.758;37.686;2023-12-28T03:13:18;6.32;;;1.45;;
78901;SDS011;70441;44.758;37.686;2023-12-28T03:14:21;3.50;;;1.00;;
78901;SDS011;70441;44.758;37.686;2023-12-28T03:15:23;4.22;;;1.17;;
78901;SDS011;70441;44.758;37.686;2023-12-28T03:16:25;4.65;;;1.05;;
78901;SDS011;70441;44.758;37.686;2023-12-28T03:17:27;4.38;;;1.35;;
78901;SDS011;70441;44.758;37.686;2023-12-28T03:18:30;4.15;;;1.33;;
78901;SDS011;70441;44.758;37.686;2023-12-28T03:19:32;4.47;;;0.95;;
78901;SDS011;70441;44.758;37.686;2023-12-28T03:20:33;4.30;;;1.30;;
78901;SDS011;70441;44.758;37.686;2023-12-28T03:21:38;2.35;;;0.73;;
78901;SDS011;70441;44.758;37.686;2023-12-28T03:22:41;2.72;;;0.90;;
78901;SDS011;70441;44.758;37.686;2023-12-28T03:23:42;4.93;;;1.05;;
78901;SDS011;70441;44.758;37.686;2023-12-28T03:24:44;5.55;;;1.02;;
78901;SDS011;70441;44.758;37.686;2023-12-28T03:25:46;2.15;;;0.70;;
78901;SDS011;70441;44.758;37.686;2023-12-28T03:26:48;2.25;;;0.70;;
78901;SDS011;70441;44.758;37.686;2023-12-28T03:27:49;3.88;;;0.90;;
78901;SDS011;70441;44.758;37.686;2023-12-28T03:28:52;1.85;;;0.40;;
78901;SDS011;70441;44.758;37.686;2023-12-28T03:29:53;4.68;;;0.90;;
78901;SDS011;70441;44.758;37.686;2023-12-28T03:30:55;3.40;;;1.00;;
78901;SDS011;70441;44.758;37.686;2023-12-28T03:31:56;3.28;;;0.85;;
78901;SDS011;70441;44.758;37.686;2023-12-28T03:32:58;1.80;;;0.50;;
78901;SDS011;70441;44.758;37.686;2023-12-28T03:34:00;6.07;;;2.13;;
78901;SDS011;70441;44.758;37.686;2023-12-28T03:35:01;4.47;;;1.27;;
78901;SDS011;70441;44.758;37.686;2023-12-28T03:36:03;5.07;;;1.35;;
78901;SDS011;70441;44.758;37.686;2023-12-28T03:37:05;2.58;;;1.00;;
78901;SDS011;70441;44.758;37.686;2023-12-28T03:38:08;6.07;;;1.08;;
78901;SDS011;70441;44.758;37.686;2023-12-28T03:39:09;3.13;;;0.70;;
78901;SDS011;70441;44.758;37.686;2023-12-28T03:40:12;2.05;;;0.70;;
78901;SDS011;70441;44.758;37.686;2023-12-28T03:41:20;2.70;;;0.80;;
78901;SDS011;70441;44.758;37.686;2023-12-28T03:42:22;3.53;;;1.05;;
78901;SDS011;70441;44.758;37.686;2023-12-28T03:43:23;2.08;;;0.73;;
78901;SDS011;70441;44.758;37.686;2023-12-28T03:44:25;2.28;;;0.60;;
78901;SDS011;70441;44.758;37.686;2023-12-28T03:45:27;2.92;;;0.68;;
78901;SDS011;70441;44.758;37.686;2023-12-28T03:46:28;3.55;;;0.82;;
78901;SDS011;70441;44.758;37.686;2023-12-28T03:47:30;2.80;;;0.77;;
78901;SDS011;70441;44.758;37.686;2023-12-28T03:48:31;4.68;;;0.93;;
78901;SDS011;70441;44.758;37.686;2023-12-28T03:49:33;2.97;;;0.82;;
78901;SDS011;70441;44.758;37.686;2023-12-28T03:50:35;3.65;;;0.80;;
78901;SDS011;70441;44.758;37.686;2023-12-28T03:51:36;3.63;;;1.20;;
78901;SDS011;70441;44.758;37.686;2023-12-28T03:52:38;4.95;;;1.20;;
78901;SDS011;70441;44.758;37.686;2023-12-28T03:53:39;5.20;;;1.20;;
78901;SDS011;70441;44.758;37.686;2023-12-28T03:54:41;4.22;;;0.85;;
78901;SDS011;70441;44.758;37.686;2023-12-28T03:55:42;4.28;;;1.15;;
78901;SDS011;70441;44.758;37.686;2023-12-28T03:56:45;2.42;;;0.77;;
78901;SDS011;70441;44.758;37.686;2023-12-28T03:57:47;1.15;;;0.47;;
78901;SDS011;70441;44.758;37.686;2023-12-28T03:58:49;3.65;;;0.93;;
78901;SDS011;70441;44.758;37.686;2023-12-28T03:59:51;4.55;;;1.27;;
78901;SDS011;70441;44.758;37.686;2023-12-28T04:00:54;5.43;;;0.75;;
78901;SDS011;70441;44.758;37.686;2023-12-28T04:01:56;6.90;;;1.15;;
78901;SDS011;70441;44.758;37.686;2023-12-28T04:02:57;5.00;;;1.13;;
78901;SDS011;70441;44.758;37.686;2023-12-28T04:04:00;8.52;;;1.75;;
78901;SDS011;70441;44.758;37.686;2023-12-28T04:05:02;5.60;;;1.00;;
78901;SDS011;70441;44.758;37.686;2023-12-28T04:06:05;4.70;;;0.98;;
78901;SDS011;70441;44.758;37.686;2023-12-28T04:08:09;4.25;;;1.10;;
78901;SDS011;70441;44.758;37.686;2023-12-28T04:09:11;4.50;;;1.20;;
78901;SDS011;70441;44.758;37.686;2023-12-28T04:10:15;5.90;;;1.50;;
78901;SDS011;70441;44.758;37.686;2023-12-28T04:11:29;4.28;;;1.33;;
78901;SDS011;70441;44.758;37.686;2023-12-28T04:12:31;3.75;;;0.88;;
78901;SDS011;70441;44.758;37.686;2023-12-28T04:13:33;6.72;;;1.60;;
78901;SDS011;70441;44.758;37.686;2023-12-28T04:14:35;9.55;;;1.48;;
78901;SDS011;70441;44.758;37.686;2023-12-28T04:15:37;4.35;;;1.05;;
78901;SDS011;70441;44.758;37.686;2023-12-28T04:16:40;2.58;;;0.47;;
78901;SDS011;70441;44.758;37.686;2023-12-28T04:17:41;6.40;;;1.40;;
78901;SDS011;70441;44.758;37.686;2023-12-28T04:18:43;5.10;;;0.73;;
78901;SDS011;70441;44.758;37.686;2023-12-28T04:19:45;6.63;;;1.25;;
78901;SDS011;70441;44.758;37.686;2023-12-28T04:20:46;3.38;;;0.90;;
78901;SDS011;70441;44.758;37.686;2023-12-28T04:21:48;8.55;;;1.13;;
78901;SDS011;70441;44.758;37.686;2023-12-28T04:22:50;4.35;;;1.00;;
78901;SDS011;70441;44.758;37.686;2023-12-28T04:23:51;4.82;;;0.93;;
78901;SDS011;70441;44.758;37.686;2023-12-28T04:24:53;4.85;;;1.30;;
78901;SDS011;70441;44.758;37.686;2023-12-28T04:25:54;5.30;;;1.17;;
78901;SDS011;70441;44.758;37.686;2023-12-28T04:26:56;6.18;;;1.30;;
78901;SDS011;70441;44.758;37.686;2023-12-28T04:27:57;3.70;;;0.88;;
78901;SDS011;70441;44.758;37.686;2023-12-28T04:29:01;2.42;;;1.00;;
78901;SDS011;70441;44.758;37.686;2023-12-28T04:30:03;4.50;;;0.93;;
78901;SDS011;70441;44.758;37.686;2023-12-28T04:31:08;4.25;;;1.13;;
78901;SDS011;70441;44.758;37.686;2023-12-28T04:32:10;2.25;;;0.75;;
78901;SDS011;70441;44.758;37.686;2023-12-28T04:33:11;2.55;;;0.80;;
78901;SDS011;70441;44.758;37.686;2023-12-28T04:34:13;2.10;;;0.75;;
78901;SDS011;70441;44.758;37.686;2023-12-28T04:35:14;2.63;;;0.90;;
78901;SDS011;70441;44.758;37.686;2023-12-28T04:36:15;5.30;;;1.17;;
78901;SDS011;70441;44.758;37.686;2023-12-28T04:37:17;4.50;;;1.25;;
78901;SDS011;70441;44.758;37.686;2023-12-28T04:38:19;4.82;;;1.05;;
78901;SDS011;70441;44.758;37.686;2023-12-28T04:39:20;4.65;;;1.17;;
78901;SDS011;70441;44.758;37.686;2023-12-28T04:40:22;3.50;;;1.42;;
78901;SDS011;70441;44.758;37.686;2023-12-28T04:41:24;3.92;;;1.00;;
78901;SDS011;70441;44.758;37.686;2023-12-28T04:42:25;2.95;;;0.93;;
78901;SDS011;70441;44.758;37.686;2023-12-28T04:43:27;4.78;;;1.10;;
78901;SDS011;70441;44.758;37.686;2023-12-28T04:44:29;3.97;;;0.77;;
78901;SDS011;70441;44.758;37.686;2023-12-28T04:45:30;2.92;;;0.82;;
78901;SDS011;70441;44.758;37.686;2023-12-28T04:46:32;2.53;;;1.02;;
78901;SDS011;70441;44.758;37.686;2023-12-28T04:47:38;2.90;;;0.70;;
78901;SDS011;70441;44.758;37.686;2023-12-28T04:48:40;3.45;;;1.23;;
78901;SDS011;70441;44.758;37.686;2023-12-28T04:49:42;6.95;;;1.50;;
78901;SDS011;70441;44.758;37.686;2023-12-28T04:50:44;5.65;;;1.20;;
78901;SDS011;70441;44.758;37.686;2023-12-28T04:51:47;4.80;;;1.13;;
78901;SDS011;70441;44.758;37.686;2023-12-28T04:52:48;3.17;;;0.82;;
78901;SDS011;70441;44.758;37.686;2023-12-28T04:53:50;4.97;;;1.20;;
78901;SDS011;70441;44.758;37.686;2023-12-28T04:54:52;5.25;;;1.20;;
78901;SDS011;70441;44.758;37.686;2023-12-28T04:55:56;7.70;;;1.85;;
78901;SDS011;70441;44.758;37.686;2023-12-28T04:56:58;5.80;;;1.77;;
78901;SDS011;70441;44.758;37.686;2023-12-28T04:59:02;7.72;;;2.35;;
78901;SDS011;70441;44.758;37.686;2023-12-28T05:00:06;5.72;;;1.75;;
78901;SDS011;70441;44.758;37.686;2023-12-28T05:01:09;9.63;;;2.15;;
78901;SDS011;70441;44.758;37.686;2023-12-28T05:02:11;9.73;;;2.40;;
78901;SDS011;70441;44.758;37.686;2023-12-28T05:03:12;6.68;;;2.08;;
78901;SDS011;70441;44.758;37.686;2023-12-28T05:04:14;5.80;;;1.85;;
78901;SDS011;70441;44.758;37.686;2023-12-28T05:05:15;5.10;;;1.95;;
78901;SDS011;70441;44.758;37.686;2023-12-28T05:06:17;3.53;;;1.40;;
78901;SDS011;70441;44.758;37.686;2023-12-28T05:07:20;4.57;;;1.25;;
78901;SDS011;70441;44.758;37.686;2023-12-28T05:08:24;3.47;;;1.30;;
78901;SDS011;70441;44.758;37.686;2023-12-28T05:09:26;5.00;;;1.23;;
78901;SDS011;70441;44.758;37.686;2023-12-28T05:10:28;6.10;;;1.60;;
78901;SDS011;70441;44.758;37.686;2023-12-28T05:11:29;6.30;;;1.38;;
78901;SDS011;70441;44.758;37.686;2023-12-28T05:12:31;3.33;;;1.00;;
78901;SDS011;70441;44.758;37.686;2023-12-28T05:13:33;4.68;;;1.45;;
78901;SDS011;70441;44.758;37.686;2023-12-28T05:14:35;4.30;;;1.23;;
78901;SDS011;70441;44.758;37.686;2023-12-28T05:15:37;6.22;;;1.48;;
78901;SDS011;70441;44.758;37.686;2023-12-28T05:16:38;4.60;;;1.23;;
78901;SDS011;70441;44.758;37.686;2023-12-28T05:17:40;6.05;;;1.20;;
78901;SDS011;70441;44.758;37.686;2023-12-28T05:18:42;5.95;;;1.30;;
78901;SDS011;70441;44.758;37.686;2023-12-28T05:20:46;4.38;;;1.13;;
78901;SDS011;70441;44.758;37.686;2023-12-28T05:21:47;6.55;;;1.70;;
78901;SDS011;70441;44.758;37.686;2023-12-28T05:22:49;5.95;;;1.58;;
78901;SDS011;70441;44.758;37.686;2023-12-28T05:23:51;3.25;;;1.20;;
78901;SDS011;70441;44.758;37.686;2023-12-28T05:24:53;3.13;;;1.30;;
78901;SDS011;70441;44.758;37.686;2023-12-28T05:25:54;4.60;;;1.60;;
78901;SDS011;70441;44.758;37.686;2023-12-28T05:26:56;3.85;;;0.93;;
78901;SDS011;70441;44.758;37.686;2023-12-28T05:27:58;4.47;;;1.17;;
78901;SDS011;70441;44.758;37.686;2023-12-28T05:28:59;5.15;;;1.40;;
78901;SDS011;70441;44.758;37.686;2023-12-28T05:30:01;4.00;;;1.15;;
78901;SDS011;70441;44.758;37.686;2023-12-28T05:31:03;4.25;;;1.20;;
78901;SDS011;70441;44.758;37.686;2023-12-28T05:32:11;5.18;;;1.67;;
78901;SDS011;70441;44.758;37.686;2023-12-28T05:33:13;4.53;;;1.35;;
78901;SDS011;70441;44.758;37.686;2023-12-28T05:34:14;7.47;;;1.95;;
78901;SDS011;70441;44.758;37.686;2023-12-28T05:35:16;5.15;;;1.38;;
78901;SDS011;70441;44.758;37.686;2023-12-28T05:36:17;4.20;;;1.30;;
78901;SDS011;70441;44.758;37.686;2023-12-28T05:37:19;5.28;;;1.20;;
78901;SDS011;70441;44.758;37.686;2023-12-28T05:38:20;6.25;;;1.20;;
78901;SDS011;70441;44.758;37.686;2023-12-28T05:39:22;2.47;;;0.98;;
78901;SDS011;70441;44.758;37.686;2023-12-28T05:40:23;7.00;;;1.67;;
78901;SDS011;70441;44.758;37.686;2023-12-28T05:41:25;3.65;;;0.95;;
78901;SDS011;70441;44.758;37.686;2023-12-28T05:42:29;7.25;;;1.75;;
78901;SDS011;70441;44.758;37.686;2023-12-28T05:43:39;4.82;;;1.55;;
78901;SDS011;70441;44.758;37.686;2023-12-28T05:44:42;7.20;;;1.10;;
78901;SDS011;70441;44.758;37.686;2023-12-28T05:45:44;3.90;;;1.00;;
78901;SDS011;70441;44.758;37.686;2023-12-28T05:46:45;5.55;;;1.25;;
78901;SDS011;70441;44.758;37.686;2023-12-28T05:47:47;4.35;;;1.05;;
78901;SDS011;70441;44.758;37.686;2023-12-28T05:48:49;2.10;;;0.73;;
78901;SDS011;70441;44.758;37.686;2023-12-28T05:49:55;7.45;;;1.20;;
78901;SDS011;70441;44.758;37.686;2023-12-28T05:51:08;7.93;;;1.60;;
78901;SDS011;70441;44.758;37.686;2023-12-28T05:57:52;2.80;;;0.90;;
78901;SDS011;70441;44.758;37.686;2023-12-28T05:58:56;4.15;;;1.10;;
78901;SDS011;70441;44.758;37.686;2023-12-28T05:59:58;3.08;;;0.98;;
78901;SDS011;70441;44.758;37.686;2023-12-28T06:01:00;2.17;;;1.00;;
78901;SDS011;70441;44.758;37.686;2023-12-28T06:02:01;6.97;;;1.20;;
78901;SDS011;70441;44.758;37.686;2023-12-28T06:03:04;3.70;;;0.85;;
78901;SDS011;70441;44.758;37.686;2023-12-28T06:04:06;6.22;;;0.90;;
78901;SDS011;70441;44.758;37.686;2023-12-28T06:05:07;6.88;;;1.35;;
78901;SDS011;70441;44.758;37.686;2023-12-28T06:06:09;7.22;;;1.10;;
78901;SDS011;70441;44.758;37.686;2023-12-28T06:07:10;6.75;;;1.55;;
78901;SDS011;70441;44.758;37.686;2023-12-28T06:08:12;2.58;;;1.05;;
78901;SDS011;70441;44.758;37.686;2023-12-28T06:09:14;2.83;;;0.70;;
78901;SDS011;70441;44.758;37.686;2023-12-28T06:10:16;2.08;;;0.60;;
78901;SDS011;70441;44.758;37.686;2023-12-28T06:11:17;3.42;;;0.95;;
78901;SDS011;70441;44.758;37.686;2023-12-28T06:12:19;3.25;;;0.90;;
78901;SDS011;70441;44.758;37.686;2023-12-28T06:13:21;3.85;;;1.00;;
78901;SDS011;70441;44.758;37.686;2023-12-28T06:14:22;4.93;;;1.25;;
78901;SDS011;70441;44.758;37.686;2023-12-28T06:15:24;6.97;;;1.10;;
78901;SDS011;70441;44.758;37.686;2023-12-28T06:16:26;3.17;;;0.75;;
78901;SDS011;70441;44.758;37.686;2023-12-28T06:17:27;2.53;;;0.80;;
78901;SDS011;70441;44.758;37.686;2023-12-28T06:18:29;4.32;;;0.90;;
78901;SDS011;70441;44.758;37.686;2023-12-28T06:19:30;2.20;;;0.60;;
78901;SDS011;70441;44.758;37.686;2023-12-28T06:20:32;3.67;;;0.95;;
78901;SDS011;70441;44.758;37.686;2023-12-28T06:21:37;4.43;;;1.33;;
78901;SDS011;70441;44.758;37.686;2023-12-28T06:22:39;5.22;;;1.08;;
78901;SDS011;70441;44.758;37.686;2023-12-28T06:23:41;4.35;;;0.93;;